createdAt,value
2022-07-31T00:00:53.537Z,20.20
2022-07-31T00:03:21.554Z,20.20
2022-07-31T00:05:49.574Z,20.10
2022-07-31T00:08:17.809Z,20.10
2022-07-31T00:10:45.770Z,20.00
2022-07-31T00:13:15.321Z,19.90
2022-07-31T00:15:43.240Z,19.90
2022-07-31T00:18:11.725Z,19.90
2022-07-31T00:20:39.698Z,19.90
2022-07-31T00:23:07.677Z,19.90
2022-07-31T00:25:38.916Z,19.90
2022-07-31T00:28:08.115Z,20.00
2022-07-31T00:30:37.397Z,20.00
2022-07-31T00:33:05.485Z,20.00
2022-07-31T00:35:33.488Z,20.10
2022-07-31T00:38:25.617Z,20.10
2022-07-31T00:40:50.232Z,20.10
2022-07-31T00:43:19.413Z,20.10
2022-07-31T00:45:56.262Z,20.10
2022-07-31T00:48:28.033Z,20.10
2022-07-31T00:50:56.235Z,20.10
2022-07-31T00:53:24.150Z,20.10
2022-07-31T00:55:52.388Z,20.10
2022-07-31T00:58:20.637Z,20.10
2022-07-31T01:00:50.173Z,20.00
2022-07-31T01:03:18.716Z,20.00
2022-07-31T01:05:46.750Z,20.10
2022-07-31T01:08:15.004Z,20.10
2022-07-31T01:10:50.123Z,20.10
2022-07-31T01:13:25.138Z,20.10
2022-07-31T01:15:56.284Z,20.10
2022-07-31T01:18:27.537Z,20.10
2022-07-31T01:20:58.870Z,20.10
2022-07-31T01:23:55.171Z,20.10
2022-07-31T01:26:44.514Z,20.10
2022-07-31T01:29:23.071Z,20.10
2022-07-31T01:31:57.743Z,20.00
2022-07-31T01:34:32.734Z,20.00
2022-07-31T01:37:16.795Z,20.00
2022-07-31T01:39:50.688Z,20.00
2022-07-31T01:42:20.790Z,20.00
2022-07-31T01:44:54.048Z,20.00
2022-07-31T01:47:24.111Z,20.00
2022-07-31T01:49:54.122Z,20.00
2022-07-31T01:52:24.352Z,20.00
2022-07-31T01:54:54.155Z,20.00
2022-07-31T01:57:24.616Z,20.00
2022-07-31T01:59:56.283Z,20.00
2022-07-31T02:02:26.298Z,20.00
2022-07-31T02:04:55.818Z,20.00
2022-07-31T02:07:25.278Z,20.00
2022-07-31T02:09:58.489Z,20.00
2022-07-31T02:12:32.076Z,20.10
2022-07-31T02:15:04.081Z,20.10
2022-07-31T02:17:32.658Z,20.10
2022-07-31T02:20:01.564Z,20.00
2022-07-31T02:22:30.218Z,20.00
2022-07-31T02:24:58.367Z,20.00
2022-07-31T02:27:55.452Z,20.00
2022-07-31T02:30:17.595Z,20.00
2022-07-31T02:32:48.032Z,20.00
2022-07-31T02:35:18.580Z,20.00
2022-07-31T02:37:49.823Z,20.00
2022-07-31T02:40:18.741Z,20.00
2022-07-31T02:42:47.945Z,20.00
2022-07-31T02:45:17.675Z,20.00
2022-07-31T02:47:46.014Z,20.00
2022-07-31T02:50:14.229Z,20.00
2022-07-31T02:52:48.272Z,20.00
2022-07-31T02:55:16.587Z,20.00
2022-07-31T02:57:44.673Z,20.00
2022-07-31T03:00:22.981Z,20.00
2022-07-31T03:02:51.436Z,20.00
2022-07-31T03:05:19.564Z,19.90
2022-07-31T03:07:47.761Z,19.90
2022-07-31T03:10:15.717Z,19.90
2022-07-31T03:12:46.291Z,19.90
2022-07-31T03:15:16.044Z,19.90
2022-07-31T03:17:46.492Z,19.90
2022-07-31T03:20:16.290Z,19.90
2022-07-31T03:22:44.883Z,19.80
2022-07-31T03:25:20.213Z,19.80
2022-07-31T03:27:56.335Z,19.80
2022-07-31T03:30:25.894Z,19.70
2022-07-31T03:32:55.877Z,19.70
2022-07-31T03:35:24.735Z,19.70
2022-07-31T03:37:53.370Z,19.70
2022-07-31T03:40:21.348Z,19.70
2022-07-31T03:42:50.892Z,19.70
2022-07-31T03:45:20.472Z,19.70
2022-07-31T03:47:48.467Z,19.70
2022-07-31T03:50:18.454Z,19.70
2022-07-31T03:52:47.665Z,19.70
2022-07-31T03:55:15.885Z,19.70
2022-07-31T03:57:44.713Z,19.70
2022-07-31T04:00:18.054Z,19.80
2022-07-31T04:02:47.249Z,19.80
2022-07-31T04:05:15.375Z,19.80
2022-07-31T04:07:44.718Z,19.80
2022-07-31T04:10:12.739Z,19.80
2022-07-31T04:12:40.766Z,19.80
2022-07-31T04:15:09.301Z,19.80
2022-07-31T04:17:37.347Z,19.80
2022-07-31T04:20:06.238Z,19.80
2022-07-31T04:22:34.212Z,19.90
2022-07-31T04:25:05.776Z,19.80
2022-07-31T04:27:33.738Z,19.90
2022-07-31T04:30:01.631Z,19.90
2022-07-31T04:32:31.017Z,19.90
2022-07-31T04:34:59.041Z,19.90
2022-07-31T04:37:26.974Z,19.90
2022-07-31T04:39:55.116Z,19.90
2022-07-31T04:42:24.350Z,19.80
2022-07-31T04:44:52.305Z,19.80
2022-07-31T04:47:22.116Z,19.80
2022-07-31T04:49:50.150Z,19.80
2022-07-31T04:52:18.092Z,19.80
2022-07-31T04:54:46.102Z,19.80
2022-07-31T04:57:16.358Z,19.80
2022-07-31T04:59:59.315Z,19.80
2022-07-31T05:02:28.751Z,19.80
2022-07-31T05:04:57.564Z,19.80
2022-07-31T05:07:27.561Z,19.80
2022-07-31T05:09:57.076Z,19.80
2022-07-31T05:12:25.097Z,19.90
2022-07-31T05:14:54.463Z,19.90
2022-07-31T05:17:22.433Z,19.90
2022-07-31T05:19:50.443Z,19.90
2022-07-31T05:22:18.818Z,19.90
2022-07-31T05:24:46.880Z,19.90
2022-07-31T05:27:14.812Z,19.90
2022-07-31T05:29:42.802Z,19.90
2022-07-31T05:32:12.437Z,19.90
2022-07-31T05:34:40.615Z,19.90
2022-07-31T05:37:08.648Z,19.90
2022-07-31T05:39:36.635Z,19.90
2022-07-31T05:42:04.876Z,19.90
2022-07-31T05:44:33.212Z,19.90
2022-07-31T05:47:01.118Z,19.90
2022-07-31T05:49:30.981Z,19.90
2022-07-31T05:51:58.959Z,19.90
2022-07-31T05:54:26.932Z,19.90
2022-07-31T05:56:54.824Z,19.90
2022-07-31T05:59:22.778Z,19.90
2022-07-31T06:01:50.811Z,19.90
2022-07-31T06:04:18.819Z,19.90
2022-07-31T06:06:48.161Z,19.90
2022-07-31T06:09:16.126Z,19.90
2022-07-31T06:11:44.037Z,19.90
2022-07-31T06:14:11.998Z,20.00
2022-07-31T06:16:39.931Z,20.00
2022-07-31T06:19:07.853Z,20.00
2022-07-31T06:21:35.782Z,20.00
2022-07-31T06:24:05.844Z,20.00
2022-07-31T06:26:35.561Z,20.00
2022-07-31T06:29:03.496Z,20.10
2022-07-31T06:31:31.617Z,20.10
2022-07-31T06:33:59.517Z,20.10
2022-07-31T06:36:27.426Z,20.10
2022-07-31T06:38:55.363Z,20.10
2022-07-31T06:41:42.419Z,20.10
2022-07-31T06:44:10.381Z,20.20
2022-07-31T06:46:38.445Z,20.20
2022-07-31T06:49:17.577Z,20.10
2022-07-31T06:51:46.012Z,20.10
2022-07-31T06:54:13.994Z,20.10
2022-07-31T06:56:43.294Z,20.20
2022-07-31T06:59:11.259Z,20.10
2022-07-31T07:01:39.291Z,20.20
2022-07-31T07:04:07.328Z,20.20
2022-07-31T07:06:35.315Z,20.20
2022-07-31T07:09:03.297Z,20.20
2022-07-31T07:11:31.339Z,20.20
2022-07-31T07:14:00.631Z,20.20
2022-07-31T07:16:28.564Z,20.20
2022-07-31T07:18:56.524Z,20.30
2022-07-31T07:21:24.637Z,20.40
2022-07-31T07:23:52.573Z,20.40
2022-07-31T07:26:20.865Z,20.50
2022-07-31T07:28:48.831Z,20.50
2022-07-31T07:31:18.075Z,20.60
2022-07-31T07:33:47.797Z,20.60
2022-07-31T07:36:22.850Z,20.60
2022-07-31T07:38:51.650Z,20.60
2022-07-31T07:41:19.594Z,20.60
2022-07-31T07:43:48.631Z,20.60
2022-07-31T07:46:22.112Z,20.60
2022-07-31T07:48:50.852Z,20.60
2022-07-31T07:51:19.483Z,20.60
2022-07-31T07:53:47.690Z,20.50
2022-07-31T07:56:15.661Z,20.50
2022-07-31T07:58:43.644Z,20.40
2022-07-31T08:01:11.961Z,20.40
2022-07-31T08:03:49.435Z,20.40
2022-07-31T08:06:20.020Z,20.40
2022-07-31T08:08:47.989Z,20.40
2022-07-31T08:11:17.162Z,20.40
2022-07-31T08:13:50.060Z,20.30
2022-07-31T08:16:19.209Z,20.30
2022-07-31T08:18:48.799Z,20.20
2022-07-31T08:21:16.795Z,20.20
2022-07-31T08:23:44.917Z,20.20
2022-07-31T08:26:13.054Z,20.20
2022-07-31T08:28:41.582Z,20.20
2022-07-31T08:31:18.179Z,20.20
2022-07-31T08:33:46.157Z,20.20
2022-07-31T08:36:15.473Z,20.30
2022-07-31T08:38:43.441Z,20.30
2022-07-31T08:41:13.912Z,20.30
2022-07-31T08:43:59.823Z,20.30
2022-07-31T08:46:30.338Z,20.30
2022-07-31T08:48:59.039Z,20.40
2022-07-31T08:51:29.684Z,20.40
2022-07-31T08:53:58.524Z,20.40
2022-07-31T08:56:26.923Z,20.50
2022-07-31T08:58:56.996Z,20.50
2022-07-31T09:01:25.413Z,20.60
2022-07-31T09:03:54.152Z,20.70
2022-07-31T09:06:22.151Z,20.70
2022-07-31T09:08:51.512Z,20.80
2022-07-31T09:11:19.717Z,20.80
2022-07-31T09:14:02.153Z,20.90
2022-07-31T09:16:31.643Z,20.80
2022-07-31T09:19:00.696Z,20.80
2022-07-31T09:21:39.294Z,20.80
2022-07-31T09:24:10.231Z,20.70
2022-07-31T09:26:40.858Z,20.70
2022-07-31T09:29:11.900Z,20.70
2022-07-31T09:31:40.430Z,20.60
2022-07-31T09:34:08.396Z,20.60
2022-07-31T09:36:36.406Z,20.60
2022-07-31T09:39:20.474Z,20.60
2022-07-31T09:42:01.776Z,20.60
2022-07-31T09:44:45.741Z,20.60
2022-07-31T09:47:26.889Z,20.60
2022-07-31T09:49:56.088Z,20.60
2022-07-31T09:52:24.407Z,20.60
2022-07-31T09:55:16.130Z,20.60
2022-07-31T09:57:54.112Z,20.70
2022-07-31T10:00:22.513Z,20.70
2022-07-31T10:02:52.116Z,20.70
2022-07-31T10:05:21.862Z,20.70
2022-07-31T10:07:50.884Z,20.60
2022-07-31T10:10:21.533Z,20.60
2022-07-31T10:12:53.285Z,20.60
2022-07-31T10:15:22.016Z,20.60
2022-07-31T10:17:52.615Z,20.70
2022-07-31T10:20:25.590Z,20.80
2022-07-31T10:22:57.811Z,20.80
2022-07-31T10:25:29.922Z,20.70
2022-07-31T10:27:58.360Z,20.70
2022-07-31T10:30:28.368Z,20.60
2022-07-31T10:32:57.005Z,20.60
2022-07-31T10:35:25.336Z,20.60
2022-07-31T10:37:59.360Z,20.50
2022-07-31T10:40:36.569Z,20.50
2022-07-31T10:43:20.567Z,20.50
2022-07-31T10:45:50.188Z,20.50
2022-07-31T10:48:18.533Z,20.40
2022-07-31T10:50:47.348Z,20.40
2022-07-31T10:53:19.448Z,20.40
2022-07-31T10:55:48.823Z,20.40
2022-07-31T10:58:19.734Z,20.40
2022-07-31T11:00:47.795Z,20.40
2022-07-31T11:03:17.858Z,20.40
2022-07-31T11:06:00.941Z,20.40
2022-07-31T11:08:42.268Z,20.40
2022-07-31T11:11:12.079Z,20.40
2022-07-31T11:13:47.725Z,20.40
2022-07-31T11:16:16.114Z,20.40
2022-07-31T11:18:46.142Z,20.40
2022-07-31T11:21:37.196Z,20.40
2022-07-31T11:24:12.369Z,20.40
2022-07-31T11:26:49.711Z,20.40
2022-07-31T11:29:58.523Z,20.40
2022-07-31T11:32:16.749Z,20.40
2022-07-31T11:34:49.098Z,20.30
2022-07-31T11:37:23.200Z,20.30
2022-07-31T11:39:52.763Z,20.30
2022-07-31T11:42:26.539Z,20.30
2022-07-31T11:45:08.394Z,20.30
2022-07-31T11:48:11.914Z,20.30
2022-07-31T11:50:30.830Z,20.30
2022-07-31T11:53:04.232Z,20.30
2022-07-31T11:55:32.351Z,20.30
2022-07-31T11:58:01.627Z,20.30
2022-07-31T12:00:30.285Z,20.30
2022-07-31T12:03:00.500Z,20.30
2022-07-31T12:05:37.935Z,20.30
2022-07-31T12:08:10.322Z,20.40
2022-07-31T12:10:39.611Z,20.40
2022-07-31T12:13:15.744Z,20.40
2022-07-31T12:15:59.516Z,20.40
2022-07-31T12:18:28.278Z,20.50
2022-07-31T12:20:58.754Z,20.50
2022-07-31T12:23:40.245Z,20.60
2022-07-31T12:26:11.638Z,20.60
2022-07-31T12:28:43.963Z,20.70
2022-07-31T12:31:11.931Z,20.70
2022-07-31T12:33:45.635Z,20.70
2022-07-31T12:36:15.383Z,20.70
2022-07-31T12:38:47.652Z,20.70
2022-07-31T12:41:17.314Z,20.70
2022-07-31T12:43:51.168Z,20.70
2022-07-31T12:46:21.664Z,20.70
2022-07-31T12:48:49.690Z,20.60
2022-07-31T12:51:20.186Z,20.60
2022-07-31T12:54:09.062Z,20.60
2022-07-31T12:56:37.634Z,20.60
2022-07-31T12:59:07.700Z,20.60
2022-07-31T13:01:36.754Z,20.70
2022-07-31T13:04:19.238Z,20.70
2022-07-31T13:06:52.027Z,20.80
2022-07-31T13:09:22.560Z,20.80
2022-07-31T13:11:55.823Z,20.90
2022-07-31T13:14:27.244Z,20.90
2022-07-31T13:16:56.136Z,20.90
2022-07-31T13:19:24.116Z,20.90
2022-07-31T13:21:52.054Z,21.00
2022-07-31T13:24:24.942Z,21.00
2022-07-31T13:26:52.922Z,21.00
2022-07-31T13:29:21.037Z,21.00
2022-07-31T13:31:50.352Z,21.00
2022-07-31T13:34:18.315Z,21.00
2022-07-31T13:36:46.277Z,21.00
2022-07-31T13:39:14.274Z,21.00
2022-07-31T13:41:42.728Z,20.90
2022-07-31T13:44:10.890Z,20.90
2022-07-31T13:46:38.865Z,20.80
2022-07-31T13:49:10.402Z,20.80
2022-07-31T13:51:39.065Z,20.70
2022-07-31T13:54:07.155Z,20.70
2022-07-31T13:56:42.468Z,20.70
2022-07-31T13:59:12.980Z,20.60
2022-07-31T14:02:03.122Z,20.60
2022-07-31T14:04:32.705Z,20.60
2022-07-31T14:07:07.483Z,20.60
2022-07-31T14:09:35.998Z,20.60
2022-07-31T14:12:05.827Z,20.60
2022-07-31T14:14:34.171Z,20.60
2022-07-31T14:17:04.816Z,20.60
2022-07-31T14:19:40.513Z,20.60
2022-07-31T14:22:13.913Z,20.60
2022-07-31T14:24:49.356Z,20.60
2022-07-31T14:27:19.921Z,20.70
2022-07-31T14:29:48.867Z,20.70
2022-07-31T14:32:16.867Z,20.70
2022-07-31T14:34:46.200Z,20.70
2022-07-31T14:37:14.173Z,20.70
2022-07-31T14:39:42.869Z,20.70
2022-07-31T14:42:11.192Z,20.70
2022-07-31T14:44:41.584Z,20.60
2022-07-31T14:47:10.202Z,20.60
2022-07-31T14:50:08.977Z,20.60
2022-07-31T14:52:28.255Z,20.60
2022-07-31T14:54:56.564Z,20.60
2022-07-31T14:57:26.250Z,20.70
2022-07-31T14:59:54.234Z,20.80
2022-07-31T15:02:22.963Z,20.90
2022-07-31T15:04:51.237Z,20.90
2022-07-31T15:07:42.374Z,21.00
2022-07-31T15:10:12.658Z,21.00
2022-07-31T15:12:40.934Z,21.00
2022-07-31T15:15:10.291Z,21.00
2022-07-31T15:17:38.306Z,21.00
2022-07-31T15:20:07.138Z,21.00
2022-07-31T15:22:35.115Z,20.90
2022-07-31T15:25:03.036Z,20.90
2022-07-31T15:27:32.260Z,20.90
2022-07-31T15:30:07.015Z,20.90
2022-07-31T15:32:36.896Z,20.90
2022-07-31T15:35:06.108Z,20.80
2022-07-31T15:37:38.225Z,20.70
2022-07-31T15:40:07.938Z,20.70
2022-07-31T15:42:40.496Z,20.70
2022-07-31T15:45:11.902Z,20.70
2022-07-31T15:47:40.159Z,20.60
2022-07-31T15:50:09.797Z,20.60
2022-07-31T15:52:37.966Z,20.60
2022-07-31T15:55:07.239Z,20.60
2022-07-31T15:57:35.359Z,20.60
2022-07-31T16:00:07.313Z,20.70
2022-07-31T16:02:35.280Z,20.70
2022-07-31T16:05:11.885Z,20.70
2022-07-31T16:08:30.530Z,20.80
2022-07-31T16:10:38.748Z,20.80
2022-07-31T16:13:06.862Z,20.80
2022-07-31T16:15:36.169Z,20.80
2022-07-31T16:18:06.446Z,20.90
2022-07-31T16:20:37.120Z,20.90
2022-07-31T16:23:05.023Z,20.90
2022-07-31T16:25:35.069Z,20.90
2022-07-31T16:28:03.464Z,20.90
2022-07-31T16:30:32.021Z,20.90
2022-07-31T16:33:01.409Z,20.90
2022-07-31T16:35:29.417Z,20.90
2022-07-31T16:37:57.362Z,20.90
2022-07-31T16:40:30.244Z,20.80
2022-07-31T16:43:01.769Z,20.90
2022-07-31T16:45:30.790Z,20.90
2022-07-31T16:47:59.480Z,20.90
2022-07-31T16:50:29.039Z,20.90
2022-07-31T16:52:57.023Z,20.90
2022-07-31T16:55:55.692Z,20.80
2022-07-31T16:58:15.724Z,20.90
2022-07-31T17:00:43.740Z,20.90
2022-07-31T17:03:59.326Z,20.90
2022-07-31T17:06:04.880Z,20.80
2022-07-31T17:08:32.825Z,20.80
2022-07-31T17:11:00.699Z,20.80
2022-07-31T17:13:28.631Z,20.80
2022-07-31T17:15:56.561Z,20.80
2022-07-31T17:18:26.103Z,20.80
2022-07-31T17:20:56.251Z,20.80
2022-07-31T17:23:43.466Z,20.80
2022-07-31T17:26:21.452Z,20.70
2022-07-31T17:28:50.574Z,20.70
2022-07-31T17:31:19.041Z,20.70
2022-07-31T17:33:59.038Z,20.70
2022-07-31T17:36:29.200Z,20.70
2022-07-31T17:38:58.778Z,20.70
2022-07-31T17:41:26.849Z,20.70
2022-07-31T17:43:54.967Z,20.60
2022-07-31T17:47:07.131Z,20.60
2022-07-31T17:49:11.732Z,20.60
2022-07-31T17:51:59.252Z,20.60
2022-07-31T17:54:35.441Z,20.60
2022-07-31T17:57:03.719Z,20.60
2022-07-31T17:59:33.915Z,20.60
2022-07-31T18:02:04.729Z,20.60
2022-07-31T18:04:36.892Z,20.60
2022-07-31T18:07:09.011Z,20.60
2022-07-31T18:09:38.401Z,20.50
2022-07-31T18:12:14.793Z,20.50
2022-07-31T18:14:43.413Z,20.50
2022-07-31T18:17:11.418Z,20.50
2022-07-31T18:19:39.404Z,20.50
2022-07-31T18:22:07.633Z,20.50
2022-07-31T18:24:35.771Z,20.50
2022-07-31T18:27:05.278Z,20.50
2022-07-31T18:29:33.334Z,20.60
2022-07-31T18:32:01.431Z,20.50
2022-07-31T18:34:29.520Z,20.50
2022-07-31T18:36:57.444Z,20.50
2022-07-31T18:39:25.914Z,20.50
2022-07-31T18:41:54.087Z,20.50
2022-07-31T18:44:23.357Z,20.50
2022-07-31T18:46:51.487Z,20.50
2022-07-31T18:50:59.787Z,20.60
2022-07-31T18:52:08.761Z,20.50
2022-07-31T18:54:37.037Z,20.60
2022-07-31T18:57:05.241Z,20.50
2022-07-31T18:59:36.247Z,20.50
2022-07-31T19:02:08.757Z,20.60
2022-07-31T19:04:39.993Z,20.60
2022-07-31T19:07:08.002Z,20.60
2022-07-31T19:09:35.893Z,20.60
2022-07-31T19:12:08.276Z,20.60
2022-07-31T19:14:38.395Z,20.50
2022-07-31T19:17:08.429Z,20.50
2022-07-31T19:19:52.795Z,20.50
2022-07-31T19:22:24.803Z,20.50
2022-07-31T19:24:55.891Z,20.50
2022-07-31T19:27:46.953Z,20.50
2022-07-31T19:30:14.740Z,20.50
2022-07-31T19:32:42.760Z,20.50
2022-07-31T19:35:11.303Z,20.50
2022-07-31T19:37:41.912Z,20.50
2022-07-31T19:40:11.448Z,20.50
2022-07-31T19:42:40.418Z,20.50
2022-07-31T19:45:11.251Z,20.50
2022-07-31T19:47:41.127Z,20.50
2022-07-31T19:50:10.278Z,20.40
2022-07-31T19:52:38.485Z,20.50
2022-07-31T19:55:15.139Z,20.40
2022-07-31T19:57:43.547Z,20.40
2022-07-31T20:00:13.470Z,20.40
2022-07-31T20:02:47.414Z,20.40
2022-07-31T20:05:17.994Z,20.40
2022-07-31T20:07:46.052Z,20.40
2022-07-31T20:10:14.915Z,20.30
2022-07-31T20:12:44.995Z,20.30
2022-07-31T20:15:13.183Z,20.30
2022-07-31T20:17:44.019Z,20.30
2022-07-31T20:20:15.588Z,20.30
2022-07-31T20:22:44.945Z,20.20
2022-07-31T20:25:19.947Z,20.20
2022-07-31T20:27:49.099Z,20.10
2022-07-31T20:30:22.168Z,20.10
2022-07-31T20:32:56.014Z,20.10
2022-07-31T20:35:29.126Z,20.00
2022-07-31T20:38:03.297Z,20.00
2022-07-31T20:40:31.502Z,20.00
2022-07-31T20:42:59.587Z,20.00
2022-07-31T20:45:28.821Z,20.00
2022-07-31T20:48:00.133Z,20.00
2022-07-31T20:50:30.677Z,20.00
2022-07-31T20:53:00.701Z,20.00
2022-07-31T20:55:35.615Z,19.90
2022-07-31T20:58:04.145Z,19.90
2022-07-31T21:00:34.199Z,20.00
2022-07-31T21:03:06.254Z,20.00
2022-07-31T21:05:34.297Z,20.00
2022-07-31T21:08:06.697Z,20.00
2022-07-31T21:10:35.575Z,19.90
2022-07-31T21:13:04.767Z,19.90
2022-07-31T21:15:42.835Z,19.90
2022-07-31T21:18:17.931Z,19.90
2022-07-31T21:20:51.289Z,19.90
2022-07-31T21:23:21.912Z,19.90
2022-07-31T21:25:50.396Z,19.90
2022-07-31T21:28:19.026Z,19.90
2022-07-31T21:30:47.508Z,19.90
2022-07-31T21:33:18.146Z,19.90
2022-07-31T21:35:47.663Z,19.90
2022-07-31T21:38:17.073Z,19.80
2022-07-31T21:40:47.044Z,19.80
2022-07-31T21:43:18.802Z,19.80
2022-07-31T21:45:57.203Z,19.80
2022-07-31T21:48:32.917Z,19.80
2022-07-31T21:51:05.387Z,19.70
2022-07-31T21:53:33.403Z,19.70
2022-07-31T21:56:03.883Z,19.70
2022-07-31T21:58:32.131Z,19.70
2022-07-31T22:01:00.911Z,19.70
2022-07-31T22:03:30.296Z,19.60
2022-07-31T22:06:15.897Z,19.60
2022-07-31T22:08:44.047Z,19.60
2022-07-31T22:11:13.426Z,19.60
2022-07-31T22:13:41.436Z,19.60
2022-07-31T22:16:09.654Z,19.50
2022-07-31T22:18:39.753Z,19.60
2022-07-31T22:21:09.774Z,19.60
2022-07-31T22:23:38.294Z,19.60
2022-07-31T22:26:07.105Z,19.60
2022-07-31T22:28:36.542Z,19.60
2022-07-31T22:31:04.825Z,19.60
2022-07-31T22:33:33.569Z,19.60
2022-07-31T22:36:08.100Z,19.70
2022-07-31T22:38:38.240Z,19.70
2022-07-31T22:41:07.864Z,19.60
2022-07-31T22:44:13.230Z,19.60
2022-07-31T22:46:24.302Z,19.70
2022-07-31T22:48:55.661Z,19.60
2022-07-31T22:51:25.317Z,19.60
2022-07-31T22:53:53.228Z,19.70
2022-07-31T22:56:21.359Z,19.70
2022-07-31T22:58:49.311Z,19.70
2022-07-31T23:01:17.370Z,19.70
2022-07-31T23:03:45.401Z,19.70
2022-07-31T23:06:31.688Z,19.70
2022-07-31T23:09:02.213Z,19.70
2022-07-31T23:11:30.541Z,19.70
2022-07-31T23:13:58.717Z,19.70
2022-07-31T23:16:27.166Z,19.70
2022-07-31T23:18:55.431Z,19.70
2022-07-31T23:21:24.299Z,19.70
2022-07-31T23:23:53.048Z,19.70
2022-07-31T23:26:25.045Z,19.70
2022-07-31T23:28:54.233Z,19.70
2022-07-31T23:31:22.814Z,19.70
2022-07-31T23:33:52.873Z,19.70
2022-07-31T23:36:21.257Z,19.70
2022-07-31T23:38:52.896Z,19.70
2022-07-31T23:41:36.828Z,19.70
2022-07-31T23:44:05.160Z,19.70
2022-07-31T23:46:37.679Z,19.60
2022-07-31T23:49:07.559Z,19.60
2022-07-31T23:51:35.535Z,19.60
2022-07-31T23:54:05.499Z,19.60
2022-07-31T23:56:37.270Z,19.60
2022-07-31T23:59:05.261Z,19.60
